createdAt,value
2019-02-17T00:00:42.234Z,82.67
2019-02-17T00:04:45.898Z,69.03
2019-02-17T00:08:49.914Z,74.77
2019-02-17T00:12:53.249Z,70.00
2019-02-17T00:16:57.038Z,76.80
2019-02-17T00:21:00.886Z,74.37
2019-02-17T00:25:04.954Z,92.33
2019-02-17T00:29:08.354Z,79.10
2019-02-17T00:33:11.899Z,84.27
2019-02-17T00:37:15.247Z,75.07
2019-02-17T00:41:18.962Z,79.93
2019-02-17T00:45:22.287Z,75.40
2019-02-17T00:49:25.842Z,71.93
2019-02-17T00:53:29.178Z,81.20
2019-02-17T00:57:32.475Z,80.30
2019-02-17T01:01:36.266Z,77.10
2019-02-17T01:05:39.550Z,79.00
2019-02-17T01:09:43.714Z,72.97
2019-02-17T01:13:47.434Z,80.17
2019-02-17T01:17:50.826Z,73.10
2019-02-17T01:21:54.444Z,75.63
2019-02-17T01:25:58.358Z,76.23
2019-02-17T01:30:02.266Z,72.37
2019-02-17T01:34:08.847Z,76.67
2019-02-17T01:38:12.382Z,68.87
2019-02-17T01:42:16.154Z,83.17
2019-02-17T01:46:19.874Z,75.23
2019-02-17T01:50:23.474Z,83.00
2019-02-17T01:54:27.495Z,77.27
2019-02-17T01:58:31.272Z,80.77
2019-02-17T02:02:34.554Z,74.63
2019-02-17T02:06:37.866Z,73.50
2019-02-17T02:10:41.160Z,80.00
2019-02-17T02:14:44.441Z,72.50
2019-02-17T02:18:47.754Z,76.97
2019-02-17T02:22:51.494Z,69.03
2019-02-17T02:26:54.785Z,70.10
2019-02-17T02:30:59.454Z,63.90
2019-02-17T02:35:03.258Z,62.40
2019-02-17T02:39:07.585Z,70.63
2019-02-17T02:43:10.891Z,72.60
2019-02-17T02:47:14.182Z,68.90
2019-02-17T02:51:17.931Z,65.60
2019-02-17T02:55:21.233Z,65.97
2019-02-17T02:59:24.525Z,60.80
2019-02-17T03:03:27.810Z,64.73
2019-02-17T03:07:31.540Z,65.13
2019-02-17T03:11:34.843Z,60.23
2019-02-17T03:15:38.562Z,58.43
2019-02-17T03:19:41.867Z,67.40
2019-02-17T03:23:45.152Z,61.50
2019-02-17T03:27:48.535Z,56.63
2019-02-17T03:31:51.851Z,59.40
2019-02-17T03:35:55.447Z,64.17
2019-02-17T03:39:59.183Z,66.33
2019-02-17T03:44:02.650Z,62.63
2019-02-17T03:48:06.190Z,57.40
2019-02-17T03:52:09.946Z,66.63
2019-02-17T03:56:13.907Z,60.20
2019-02-17T04:00:17.618Z,58.80
2019-02-17T04:04:21.367Z,64.37
2019-02-17T04:08:25.082Z,63.03
2019-02-17T04:12:28.374Z,61.13
2019-02-17T04:16:31.758Z,67.87
2019-02-17T04:20:35.099Z,65.83
2019-02-17T04:24:38.407Z,58.30
2019-02-17T04:28:42.005Z,68.87
2019-02-17T04:32:46.019Z,64.67
2019-02-17T04:36:49.752Z,54.60
2019-02-17T04:40:53.042Z,56.97
2019-02-17T04:44:56.787Z,64.63
2019-02-17T04:49:00.505Z,60.80
2019-02-17T04:53:03.806Z,69.37
2019-02-17T04:57:07.536Z,62.07
2019-02-17T05:01:10.806Z,60.37
2019-02-17T05:05:14.111Z,61.93
2019-02-17T05:09:17.414Z,56.73
2019-02-17T05:13:21.132Z,56.17
2019-02-17T05:17:24.431Z,61.53
2019-02-17T05:21:28.158Z,64.37
2019-02-17T05:25:32.132Z,58.50
2019-02-17T05:29:35.458Z,61.57
2019-02-17T05:33:38.759Z,64.53
2019-02-17T05:37:42.110Z,65.43
2019-02-17T05:41:45.414Z,56.20
2019-02-17T05:45:48.708Z,64.90
2019-02-17T05:49:52.006Z,58.17
2019-02-17T05:53:55.303Z,63.00
2019-02-17T05:57:59.164Z,61.40
2019-02-17T06:02:02.483Z,63.17
2019-02-17T06:06:06.208Z,63.40
2019-02-17T06:10:09.574Z,71.07
2019-02-17T06:14:12.874Z,62.90
2019-02-17T06:18:16.678Z,60.27
2019-02-17T06:22:20.150Z,62.63
2019-02-17T06:26:23.726Z,70.10
2019-02-17T06:30:27.034Z,51.50
2019-02-17T06:34:30.794Z,64.90
2019-02-17T06:38:34.078Z,64.77
2019-02-17T06:42:37.818Z,52.97
2019-02-17T06:46:46.095Z,53.70
2019-02-17T06:50:49.390Z,58.23
2019-02-17T06:55:04.934Z,54.27
2019-02-17T06:59:09.005Z,48.70
2019-02-17T07:03:14.353Z,48.73
2019-02-17T07:07:17.321Z,49.80
2019-02-17T07:11:20.901Z,52.20
2019-02-17T07:15:25.158Z,50.50
2019-02-17T07:19:29.247Z,48.73
2019-02-17T07:23:32.982Z,46.00
2019-02-17T07:27:36.286Z,53.07
2019-02-17T07:31:40.336Z,44.90
2019-02-17T07:35:44.171Z,42.97
2019-02-17T07:39:47.459Z,45.63
2019-02-17T07:43:51.190Z,45.60
2019-02-17T07:47:54.943Z,42.70
2019-02-17T07:51:58.234Z,45.13
2019-02-17T07:56:01.554Z,43.97
2019-02-17T08:00:05.186Z,42.10
2019-02-17T08:04:08.931Z,42.10
2019-02-17T08:08:12.231Z,43.90
2019-02-17T08:12:15.946Z,43.20
2019-02-17T08:16:19.939Z,41.77
2019-02-17T08:20:23.670Z,43.37
2019-02-17T08:24:26.950Z,39.57
2019-02-17T08:28:30.978Z,44.93
2019-02-17T08:32:34.274Z,45.43
2019-02-17T08:36:37.574Z,36.57
2019-02-17T08:40:41.098Z,38.73
2019-02-17T08:44:44.835Z,37.43
2019-02-17T08:48:48.121Z,42.17
2019-02-17T08:52:51.858Z,40.13
2019-02-17T08:56:55.847Z,38.27
2019-02-17T09:00:59.126Z,34.47
2019-02-17T09:05:02.424Z,32.37
2019-02-17T09:09:06.798Z,33.97
2019-02-17T09:13:10.530Z,32.40
2019-02-17T09:17:13.838Z,32.67
2019-02-17T09:21:17.571Z,33.60
2019-02-17T09:25:20.854Z,30.13
2019-02-17T09:29:24.614Z,33.10
2019-02-17T09:33:27.990Z,28.70
2019-02-17T09:37:31.303Z,35.10
2019-02-17T09:41:34.614Z,30.90
2019-02-17T09:45:38.684Z,30.47
2019-02-17T09:49:42.711Z,32.07
2019-02-17T09:53:46.450Z,28.30
2019-02-17T09:57:49.738Z,28.07
2019-02-17T10:01:53.470Z,32.97
2019-02-17T10:05:56.778Z,30.20
2019-02-17T10:10:00.490Z,23.27
2019-02-17T10:14:03.794Z,25.10
2019-02-17T10:18:07.414Z,26.97
2019-02-17T10:22:11.151Z,26.00
2019-02-17T10:26:14.445Z,21.07
2019-02-17T10:30:18.380Z,21.50
2019-02-17T10:34:22.435Z,24.57
2019-02-17T10:38:26.538Z,25.13
2019-02-17T10:42:29.818Z,26.47
2019-02-17T10:46:33.138Z,24.63
2019-02-17T10:50:36.519Z,23.27
2019-02-17T10:54:39.814Z,23.53
2019-02-17T10:58:43.110Z,25.30
2019-02-17T11:02:47.702Z,22.53
2019-02-17T11:06:51.862Z,20.90
2019-02-17T11:10:56.283Z,24.07
2019-02-17T11:15:00.379Z,22.87
2019-02-17T11:19:04.123Z,20.30
2019-02-17T11:23:07.426Z,21.40
2019-02-17T11:27:11.155Z,22.50
2019-02-17T11:31:14.463Z,21.70
2019-02-17T11:35:17.846Z,20.33
2019-02-17T11:39:21.420Z,25.13
2019-02-17T11:43:25.164Z,23.60
2019-02-17T11:47:28.903Z,22.27
2019-02-17T11:51:32.198Z,21.57
2019-02-17T11:55:35.943Z,24.43
2019-02-17T11:59:39.666Z,22.80
2019-02-17T12:03:43.262Z,20.00
2019-02-17T12:07:47.119Z,18.33
2019-02-17T12:11:50.883Z,23.47
2019-02-17T12:15:54.186Z,17.27
2019-02-17T12:20:05.542Z,24.67
2019-02-17T12:24:31.154Z,25.90
2019-02-17T12:28:39.091Z,21.87
2019-02-17T12:32:42.406Z,22.30
2019-02-17T12:36:48.178Z,23.40
2019-02-17T12:40:52.146Z,23.63
2019-02-17T12:44:57.038Z,20.77
2019-02-17T12:49:00.634Z,20.47
2019-02-17T12:53:04.934Z,20.60
2019-02-17T12:57:08.254Z,20.53
2019-02-17T13:01:13.465Z,23.23
2019-02-17T13:05:16.583Z,21.40
2019-02-17T13:09:19.927Z,22.40
2019-02-17T13:13:23.281Z,22.80
2019-02-17T13:17:27.076Z,20.07
2019-02-17T13:21:30.647Z,17.27
2019-02-17T13:25:34.411Z,19.57
2019-02-17T13:29:40.247Z,18.20
2019-02-17T13:33:43.169Z,19.87
2019-02-17T13:37:46.729Z,19.37
2019-02-17T13:41:50.274Z,20.50
2019-02-17T13:45:53.606Z,22.57
2019-02-17T13:49:56.898Z,20.30
2019-02-17T13:54:00.650Z,20.63
2019-02-17T13:58:04.034Z,17.87
2019-02-17T14:02:07.758Z,16.07
2019-02-17T14:06:11.522Z,18.27
2019-02-17T14:10:14.842Z,19.83
2019-02-17T14:14:18.562Z,20.83
2019-02-17T14:18:22.306Z,19.73
2019-02-17T14:22:25.611Z,21.33
2019-02-17T14:26:28.907Z,18.23
2019-02-17T14:30:32.195Z,20.13
2019-02-17T14:34:35.511Z,18.73
2019-02-17T14:38:39.483Z,23.83
2019-02-17T14:42:42.986Z,20.33
2019-02-17T14:46:46.414Z,22.93
2019-02-17T14:50:50.703Z,23.03
2019-02-17T14:54:54.095Z,22.33
2019-02-17T14:58:58.150Z,23.00
2019-02-17T15:03:01.575Z,26.40
2019-02-17T15:07:04.858Z,23.37
2019-02-17T15:11:08.175Z,21.40
2019-02-17T15:15:11.548Z,26.57
2019-02-17T15:19:15.082Z,21.90
2019-02-17T15:23:18.846Z,24.50
2019-02-17T15:27:22.598Z,23.23
2019-02-17T15:31:25.909Z,21.50
2019-02-17T15:35:29.634Z,21.33
2019-02-17T15:39:32.935Z,22.00
2019-02-17T15:43:37.325Z,24.70
2019-02-17T15:47:40.618Z,23.40
2019-02-17T15:51:43.910Z,22.13
2019-02-17T15:55:47.203Z,21.37
2019-02-17T15:59:50.503Z,24.00
2019-02-17T16:03:53.833Z,31.13
2019-02-17T16:07:57.118Z,23.60
2019-02-17T16:12:00.422Z,25.17
2019-02-17T16:16:03.803Z,26.13
2019-02-17T16:20:09.767Z,24.50
2019-02-17T16:24:13.078Z,22.93
2019-02-17T16:28:16.714Z,23.93
2019-02-17T16:32:21.826Z,21.87
2019-02-17T16:36:25.274Z,19.60
2019-02-17T16:40:28.642Z,22.80
2019-02-17T16:44:32.402Z,22.10
2019-02-17T16:48:35.706Z,25.67
2019-02-17T16:52:38.994Z,21.80
2019-02-17T16:56:42.730Z,25.60
2019-02-17T17:00:46.030Z,22.07
2019-02-17T17:04:49.837Z,25.83
2019-02-17T17:08:53.140Z,20.50
2019-02-17T17:12:56.514Z,23.20
2019-02-17T17:16:59.805Z,23.33
2019-02-17T17:21:03.127Z,19.40
2019-02-17T17:25:06.878Z,22.47
2019-02-17T17:29:10.606Z,31.33
2019-02-17T17:33:14.390Z,19.27
2019-02-17T17:37:17.671Z,24.47
2019-02-17T17:41:21.743Z,22.50
2019-02-17T17:45:25.515Z,23.33
2019-02-17T17:49:28.803Z,23.93
2019-02-17T17:53:32.115Z,29.37
2019-02-17T17:57:35.714Z,23.20
2019-02-17T18:01:39.002Z,23.20
2019-02-17T18:05:42.306Z,27.07
2019-02-17T18:09:46.050Z,31.57
2019-02-17T18:13:49.334Z,24.40
2019-02-17T18:17:54.860Z,26.40
2019-02-17T18:21:57.679Z,27.43
2019-02-17T18:26:01.407Z,26.40
2019-02-17T18:30:04.943Z,31.03
2019-02-17T18:34:08.262Z,26.43
2019-02-17T18:38:12.002Z,24.47
2019-02-17T18:42:15.308Z,28.10
2019-02-17T18:46:18.606Z,27.63
2019-02-17T18:50:21.911Z,31.27
2019-02-17T18:54:25.227Z,28.80
2019-02-17T18:58:29.203Z,28.57
2019-02-17T19:02:32.958Z,29.17
2019-02-17T19:06:36.702Z,30.83
2019-02-17T19:10:39.995Z,23.27
2019-02-17T19:14:43.742Z,29.53
2019-02-17T19:18:47.042Z,29.30
2019-02-17T19:22:50.939Z,26.20
2019-02-17T19:26:54.682Z,27.97
2019-02-17T19:30:57.970Z,30.20
2019-02-17T19:35:01.286Z,30.33
2019-02-17T19:39:05.655Z,28.07
2019-02-17T19:43:09.020Z,33.20
2019-02-17T19:47:12.884Z,28.63
2019-02-17T19:51:16.192Z,30.90
2019-02-17T19:55:19.935Z,29.40
2019-02-17T19:59:24.424Z,29.30
2019-02-17T20:03:45.767Z,30.83
2019-02-17T20:07:49.212Z,32.83
2019-02-17T20:11:53.544Z,30.33
2019-02-17T20:15:56.835Z,30.97
2019-02-17T20:20:00.298Z,28.83
2019-02-17T20:24:04.177Z,30.63
2019-02-17T20:28:07.475Z,24.87
2019-02-17T20:32:11.513Z,31.03
2019-02-17T20:36:15.242Z,27.80
2019-02-17T20:40:19.077Z,27.10
2019-02-17T20:44:22.647Z,29.47
2019-02-17T20:48:26.266Z,27.33
2019-02-17T20:52:30.311Z,26.60
2019-02-17T20:56:33.607Z,30.10
2019-02-17T21:00:36.887Z,28.03
2019-02-17T21:04:40.186Z,27.60
2019-02-17T21:08:43.518Z,25.73
2019-02-17T21:12:46.809Z,30.60
2019-02-17T21:16:50.118Z,26.37
2019-02-17T21:20:53.402Z,31.63
2019-02-17T21:24:57.312Z,26.83
2019-02-17T21:29:00.594Z,29.17
2019-02-17T21:33:03.967Z,27.10
2019-02-17T21:37:07.270Z,30.17
2019-02-17T21:41:10.554Z,25.80
2019-02-17T21:45:13.874Z,25.77
2019-02-17T21:49:17.719Z,27.63
2019-02-17T21:53:21.112Z,26.33
2019-02-17T21:57:24.930Z,28.07
2019-02-17T22:01:28.666Z,29.73
2019-02-17T22:05:31.963Z,26.23
2019-02-17T22:09:35.990Z,28.23
2019-02-17T22:13:39.754Z,28.33
2019-02-17T22:17:43.284Z,28.00
2019-02-17T22:21:46.590Z,29.93
2019-02-17T22:25:49.890Z,25.93
2019-02-17T22:29:53.850Z,26.83
2019-02-17T22:33:57.158Z,33.20
2019-02-17T22:38:00.798Z,21.97
2019-02-17T22:42:04.102Z,33.17
2019-02-17T22:46:07.394Z,25.30
2019-02-17T22:50:11.022Z,24.40
2019-02-17T22:54:14.311Z,27.13
2019-02-17T22:58:18.046Z,26.63
2019-02-17T23:02:22.762Z,24.87
2019-02-17T23:06:26.042Z,28.13
2019-02-17T23:10:29.775Z,27.53
2019-02-17T23:14:33.062Z,29.17
2019-02-17T23:18:36.696Z,31.23
2019-02-17T23:22:40.430Z,23.70
2019-02-17T23:26:43.730Z,21.97
2019-02-17T23:30:47.466Z,23.43
2019-02-17T23:34:51.558Z,25.97
2019-02-17T23:38:54.926Z,23.80
2019-02-17T23:42:58.244Z,23.30
2019-02-17T23:47:02.202Z,24.23
2019-02-17T23:51:05.530Z,22.47
2019-02-17T23:55:08.915Z,22.73
2019-02-17T23:59:12.198Z,22.67
